createdAt,value
2023-03-06T00:02:34.791Z,0.15
2023-03-06T00:06:37.432Z,0.11
2023-03-06T00:10:41.684Z,0.03
2023-03-06T00:14:44.324Z,0.04
2023-03-06T00:18:47.745Z,0.08
2023-03-06T00:22:51.078Z,0.09
2023-03-06T00:26:55.085Z,0.08
2023-03-06T00:30:57.722Z,0.07
2023-03-06T00:35:00.389Z,0.08
2023-03-06T00:39:02.994Z,0.12
2023-03-06T00:43:06.980Z,0.15
2023-03-06T00:47:09.979Z,0.17
2023-03-06T00:51:14.031Z,0.17
2023-03-06T00:55:16.986Z,0.17
2023-03-06T00:59:20.923Z,0.15
2023-03-06T01:03:23.606Z,0.18
2023-03-06T01:07:27.282Z,0.19
2023-03-06T01:11:30.014Z,0.24
2023-03-06T01:15:33.965Z,0.24
2023-03-06T01:19:36.635Z,0.18
2023-03-06T01:23:39.310Z,0.18
2023-03-06T01:27:41.937Z,0.18
2023-03-06T01:31:45.992Z,0.16
2023-03-06T01:35:48.727Z,0.19
2023-03-06T01:39:51.416Z,0.19
2023-03-06T01:43:54.118Z,0.16
2023-03-06T01:47:58.077Z,0.17
2023-03-06T01:52:04.758Z,0.18
2023-03-06T01:56:08.692Z,0.16
2023-03-06T02:00:14.259Z,0.12
2023-03-06T02:04:18.993Z,0.13
2023-03-06T02:08:24.468Z,0.06
2023-03-06T02:12:27.673Z,0.03
2023-03-06T02:16:34.135Z,0.03
2023-03-06T02:20:45.110Z,0.02
2023-03-06T02:24:55.079Z,0.01
2023-03-06T02:28:59.380Z,-0.05
2023-03-06T02:33:02.717Z,-0.06
2023-03-06T02:37:08.779Z,-0.09
2023-03-06T02:41:11.471Z,-0.12
2023-03-06T02:45:18.412Z,-0.11
2023-03-06T02:49:21.110Z,-0.13
2023-03-06T02:53:23.862Z,-0.16
2023-03-06T02:57:26.449Z,-0.16
2023-03-06T03:01:30.525Z,-0.23
2023-03-06T03:05:33.673Z,-0.27
2023-03-06T03:09:37.251Z,-0.24
2023-03-06T03:13:40.309Z,-0.29
2023-03-06T03:17:46.842Z,-0.34
2023-03-06T03:21:49.449Z,-0.36
2023-03-06T03:25:52.128Z,-0.43
2023-03-06T03:29:57.484Z,-0.47
2023-03-06T03:34:01.724Z,-0.47
2023-03-06T03:38:04.512Z,-0.54
2023-03-06T03:42:07.724Z,-0.63
2023-03-06T03:46:10.901Z,-0.68
2023-03-06T03:50:14.912Z,-0.71
2023-03-06T03:54:18.003Z,-0.75
2023-03-06T03:58:21.140Z,-0.71
2023-03-06T04:02:25.332Z,-0.73
2023-03-06T04:06:30.093Z,-0.78
2023-03-06T04:10:34.530Z,-0.80
2023-03-06T04:14:37.742Z,-0.77
2023-03-06T04:18:40.759Z,-0.82
2023-03-06T04:22:44.753Z,-0.84
2023-03-06T04:26:48.022Z,-0.82
2023-03-06T04:30:50.735Z,-0.84
2023-03-06T04:34:53.595Z,-0.79
2023-03-06T04:38:58.850Z,-0.83
2023-03-06T04:43:02.612Z,-0.81
2023-03-06T04:47:05.912Z,-0.82
2023-03-06T04:51:08.710Z,-0.82
2023-03-06T04:55:14.681Z,-0.79
2023-03-06T04:59:17.514Z,-0.76
2023-03-06T05:03:21.262Z,-0.80
2023-03-06T05:07:23.873Z,-0.77
2023-03-06T05:11:28.140Z,-0.79
2023-03-06T05:15:30.738Z,-0.81
2023-03-06T05:19:33.373Z,-0.77
2023-03-06T05:23:38.558Z,-0.74
2023-03-06T05:27:42.836Z,-0.73
2023-03-06T05:31:45.727Z,-0.72
2023-03-06T05:35:49.651Z,-0.73
2023-03-06T05:39:52.836Z,-0.75
2023-03-06T05:43:56.992Z,-0.74
2023-03-06T05:47:59.599Z,-0.71
2023-03-06T05:52:04.008Z,-0.68
2023-03-06T05:56:09.794Z,-0.69
2023-03-06T06:00:15.483Z,-0.72
2023-03-06T06:04:18.070Z,-0.68
2023-03-06T06:08:22.093Z,-0.65
2023-03-06T06:12:24.924Z,-0.65
2023-03-06T06:16:29.211Z,-0.64
2023-03-06T06:20:32.485Z,-0.57
2023-03-06T06:24:35.417Z,-0.58
2023-03-06T06:28:38.591Z,-0.52
2023-03-06T06:32:42.926Z,-0.46
2023-03-06T06:36:45.710Z,-0.46
2023-03-06T06:41:18.082Z,-0.40
2023-03-06T06:45:12.503Z,-0.38
2023-03-06T06:49:16.842Z,-0.36
2023-03-06T06:53:19.652Z,-0.37
2023-03-06T06:57:22.765Z,-0.32
2023-03-06T07:01:25.475Z,-0.30
2023-03-06T07:05:29.502Z,-0.27
2023-03-06T07:09:32.245Z,-0.19
2023-03-06T07:13:35.363Z,-0.14
2023-03-06T07:17:38.137Z,0.06
2023-03-06T07:21:42.607Z,0.36
2023-03-06T07:25:45.332Z,0.61
2023-03-06T07:29:48.590Z,0.52
2023-03-06T07:33:51.890Z,0.49
2023-03-06T07:37:55.996Z,0.81
2023-03-06T07:41:58.873Z,0.83
2023-03-06T07:46:01.940Z,1.44
2023-03-06T07:50:06.990Z,1.94
2023-03-06T07:54:12.033Z,2.05
2023-03-06T07:58:14.712Z,2.00
2023-03-06T08:02:17.456Z,1.93
2023-03-06T08:06:22.695Z,1.85
2023-03-06T08:10:26.942Z,1.65
2023-03-06T08:14:29.737Z,1.81
2023-03-06T08:18:32.569Z,1.82
2023-03-06T08:22:35.418Z,1.83
2023-03-06T08:26:39.753Z,1.84
2023-03-06T08:30:42.676Z,1.80
2023-03-06T08:34:46.018Z,2.05
2023-03-06T08:38:49.029Z,2.04
2023-03-06T08:42:53.093Z,2.03
2023-03-06T08:46:55.993Z,2.11
2023-03-06T08:50:58.979Z,2.07
2023-03-06T08:55:03.684Z,1.67
2023-03-06T08:59:10.502Z,1.51
2023-03-06T09:03:13.109Z,1.65
2023-03-06T09:07:15.977Z,1.61
2023-03-06T09:11:18.826Z,1.68
2023-03-06T09:15:24.236Z,1.81
2023-03-06T09:19:27.025Z,1.95
2023-03-06T09:23:29.745Z,2.14
2023-03-06T09:27:32.920Z,2.34
2023-03-06T09:31:37.057Z,2.29
2023-03-06T09:35:44.432Z,2.13
2023-03-06T09:39:47.233Z,2.07
2023-03-06T09:43:53.392Z,1.90
2023-03-06T09:48:01.760Z,1.95
2023-03-06T09:52:16.959Z,2.11
2023-03-06T09:56:23.975Z,2.36
2023-03-06T10:00:33.979Z,2.49
2023-03-06T10:04:42.683Z,2.66
2023-03-06T10:08:50.265Z,2.86
2023-03-06T10:13:04.175Z,3.13
2023-03-06T10:17:12.037Z,2.96
2023-03-06T10:21:31.348Z,3.17
2023-03-06T10:25:36.842Z,3.30
2023-03-06T10:30:01.701Z,3.49
2023-03-06T10:34:21.134Z,3.78
2023-03-06T10:38:27.162Z,3.85
2023-03-06T10:42:29.918Z,4.13
2023-03-06T10:46:35.491Z,3.91
2023-03-06T10:50:38.293Z,3.59
2023-03-06T10:54:45.982Z,3.38
2023-03-06T10:58:48.668Z,3.63
2023-03-06T11:03:07.213Z,3.55
2023-03-06T11:07:16.948Z,3.55
2023-03-06T11:11:36.884Z,3.66
2023-03-06T11:15:40.446Z,3.52
2023-03-06T11:19:43.419Z,3.61
2023-03-06T11:23:47.860Z,3.59
2023-03-06T11:28:00.516Z,3.49
2023-03-06T11:32:10.613Z,3.47
2023-03-06T11:36:17.906Z,3.12
2023-03-06T11:40:27.583Z,2.90
2023-03-06T11:44:45.211Z,2.87
2023-03-06T11:48:53.537Z,2.91
2023-03-06T11:53:00.901Z,2.88
2023-03-06T11:57:09.057Z,2.95
2023-03-06T12:01:24.330Z,2.98
2023-03-06T12:05:38.819Z,3.26
2023-03-06T12:09:47.743Z,3.81
2023-03-06T12:14:18.866Z,3.84
2023-03-06T12:18:36.078Z,3.81
2023-03-06T12:22:58.043Z,3.82
2023-03-06T12:27:20.913Z,3.74
2023-03-06T12:31:41.409Z,4.02
2023-03-06T12:35:57.813Z,4.42
2023-03-06T12:40:44.641Z,4.41
2023-03-06T12:45:10.922Z,4.82
2023-03-06T12:49:31.433Z,5.02
2023-03-06T12:53:37.890Z,5.21
2023-03-06T12:57:41.723Z,5.04
2023-03-06T13:01:59.977Z,4.62
2023-03-06T13:06:14.320Z,4.57
2023-03-06T13:10:23.880Z,4.70
2023-03-06T13:14:29.400Z,4.79
2023-03-06T13:18:51.871Z,4.27
2023-03-06T13:22:54.716Z,4.05
2023-03-06T13:27:07.986Z,3.85
2023-03-06T13:31:18.321Z,3.75
2023-03-06T13:35:52.465Z,3.06
2023-03-06T13:40:27.185Z,2.78
2023-03-06T13:44:43.988Z,2.27
2023-03-06T13:48:47.894Z,2.10
2023-03-06T13:53:06.240Z,2.12
2023-03-06T13:57:24.801Z,2.17
2023-03-06T14:01:40.433Z,2.33
2023-03-06T14:05:44.392Z,2.13
2023-03-06T14:09:49.132Z,1.93
2023-03-06T14:13:55.344Z,1.97
2023-03-06T14:18:02.593Z,1.84
2023-03-06T14:22:07.047Z,1.74
2023-03-06T14:26:15.595Z,1.54
2023-03-06T14:30:22.572Z,1.57
2023-03-06T14:34:30.156Z,1.73
2023-03-06T14:38:37.582Z,1.72
2023-03-06T14:42:40.340Z,1.73
2023-03-06T14:46:43.071Z,1.73
2023-03-06T14:50:51.295Z,1.83
2023-03-06T14:54:54.132Z,1.92
2023-03-06T14:59:00.463Z,1.91
2023-03-06T15:03:07.646Z,1.81
2023-03-06T15:07:16.632Z,1.82
2023-03-06T15:11:19.441Z,1.77
2023-03-06T15:15:28.093Z,1.65
2023-03-06T15:19:41.326Z,1.69
2023-03-06T15:23:47.762Z,1.74
2023-03-06T15:27:52.768Z,1.76
2023-03-06T15:32:14.341Z,1.80
2023-03-06T15:36:25.029Z,1.88
2023-03-06T15:40:31.874Z,1.91
2023-03-06T15:44:34.661Z,1.97
2023-03-06T15:48:37.359Z,2.06
2023-03-06T15:52:40.779Z,2.10
2023-03-06T15:56:47.804Z,2.14
2023-03-06T16:00:50.795Z,2.14
2023-03-06T16:04:54.775Z,2.29
2023-03-06T16:08:57.580Z,2.26
2023-03-06T16:13:06.219Z,2.24
2023-03-06T16:17:10.787Z,2.22
2023-03-06T16:21:13.727Z,2.17
2023-03-06T16:25:17.744Z,2.18
2023-03-06T16:29:23.649Z,2.18
2023-03-06T16:33:26.452Z,2.25
2023-03-06T16:37:29.481Z,2.20
2023-03-06T16:41:32.607Z,2.18
2023-03-06T16:45:40.740Z,2.16
2023-03-06T16:49:43.554Z,2.13
2023-03-06T16:53:47.048Z,2.11
2023-03-06T16:57:49.787Z,3.06
2023-03-06T17:01:53.970Z,3.95
2023-03-06T17:05:56.789Z,4.55
2023-03-06T17:09:59.526Z,4.91
2023-03-06T17:14:02.895Z,4.42
2023-03-06T17:18:07.354Z,3.44
2023-03-06T17:22:10.005Z,2.81
2023-03-06T17:26:14.569Z,2.53
2023-03-06T17:30:17.508Z,2.32
2023-03-06T17:34:24.225Z,2.13
2023-03-06T17:38:27.752Z,2.10
2023-03-06T17:42:30.626Z,2.03
2023-03-06T17:46:34.666Z,1.94
2023-03-06T17:50:38.845Z,1.87
2023-03-06T17:54:41.661Z,1.86
2023-03-06T17:58:44.368Z,1.89
2023-03-06T18:02:47.040Z,1.82
2023-03-06T18:06:51.148Z,1.78
2023-03-06T18:10:59.277Z,1.77
2023-03-06T18:15:01.998Z,1.74
2023-03-06T18:19:04.762Z,1.90
2023-03-06T18:23:09.004Z,2.07
2023-03-06T18:27:11.884Z,2.03
2023-03-06T18:31:16.997Z,1.95
2023-03-06T18:35:19.750Z,1.82
2023-03-06T18:39:23.801Z,1.87
2023-03-06T18:43:26.511Z,2.13
2023-03-06T18:47:29.271Z,2.03
2023-03-06T18:51:32.481Z,1.87
2023-03-06T18:55:36.446Z,1.80
2023-03-06T18:59:39.298Z,1.77
2023-03-06T19:03:41.926Z,1.82
2023-03-06T19:07:44.675Z,1.82
2023-03-06T19:11:48.670Z,1.71
2023-03-06T19:15:51.259Z,1.73
2023-03-06T19:19:55.052Z,1.69
2023-03-06T19:23:58.217Z,1.68
2023-03-06T19:28:02.266Z,1.67
2023-03-06T19:32:05.197Z,1.66
2023-03-06T19:36:10.504Z,1.62
2023-03-06T19:40:13.936Z,1.66
2023-03-06T19:44:17.984Z,1.63
2023-03-06T19:48:22.661Z,1.59
2023-03-06T19:52:25.477Z,1.55
2023-03-06T19:56:31.867Z,1.51
2023-03-06T20:00:36.129Z,1.50
2023-03-06T20:04:39.030Z,1.48
2023-03-06T20:08:41.954Z,1.47
2023-03-06T20:12:44.653Z,1.48
2023-03-06T20:16:48.748Z,1.51
2023-03-06T20:20:59.634Z,1.50
2023-03-06T20:25:02.940Z,1.50
2023-03-06T20:29:06.606Z,1.47
2023-03-06T20:33:10.806Z,1.48
2023-03-06T20:37:13.601Z,1.46
2023-03-06T20:41:17.067Z,1.43
2023-03-06T20:45:20.013Z,1.43
2023-03-06T20:49:26.769Z,1.40
2023-03-06T20:53:30.208Z,1.35
2023-03-06T20:57:34.656Z,1.37
2023-03-06T21:01:41.293Z,1.34
2023-03-06T21:05:47.103Z,1.29
2023-03-06T21:09:49.908Z,1.32
2023-03-06T21:13:53.579Z,1.31
2023-03-06T21:17:56.401Z,1.26
2023-03-06T21:22:00.505Z,1.23
2023-03-06T21:26:03.389Z,1.24
2023-03-06T21:30:07.616Z,1.24
2023-03-06T21:34:11.452Z,1.23
2023-03-06T21:38:15.731Z,1.21
2023-03-06T21:42:18.467Z,1.18
2023-03-06T21:46:21.177Z,1.14
2023-03-06T21:50:24.976Z,1.12
2023-03-06T21:54:29.366Z,1.12
2023-03-06T21:58:32.436Z,1.08
2023-03-06T22:02:35.312Z,1.09
2023-03-06T22:06:39.710Z,1.08
2023-03-06T22:10:43.829Z,1.11
2023-03-06T22:14:46.842Z,1.10
2023-03-06T22:18:52.444Z,1.10
2023-03-06T22:22:55.181Z,1.11
2023-03-06T22:26:59.433Z,1.10
2023-03-06T22:31:05.624Z,1.04
2023-03-06T22:35:09.180Z,1.03
2023-03-06T22:39:13.780Z,1.06
2023-03-06T22:43:20.020Z,1.07
2023-03-06T22:47:22.731Z,1.05
2023-03-06T22:51:26.197Z,1.06
2023-03-06T22:55:28.956Z,1.07
2023-03-06T22:59:33.103Z,1.08
2023-03-06T23:03:36.698Z,1.04
2023-03-06T23:07:39.767Z,1.02
2023-03-06T23:11:42.921Z,0.98
2023-03-06T23:15:47.030Z,0.98
2023-03-06T23:19:50.204Z,0.96
2023-03-06T23:23:54.878Z,0.95
2023-03-06T23:27:57.701Z,0.95
2023-03-06T23:32:01.856Z,0.97
2023-03-06T23:36:05.356Z,0.94
2023-03-06T23:40:10.025Z,0.94
2023-03-06T23:44:12.702Z,0.95
2023-03-06T23:48:16.744Z,0.97
2023-03-06T23:52:19.527Z,0.95
2023-03-06T23:56:22.462Z,0.95
